createdAt,value
2016-11-26T00:00:35.219Z,37.56
2016-11-26T00:01:44.219Z,37.46
2016-11-26T00:02:53.864Z,37.56
2016-11-26T00:04:03.502Z,37.56
2016-11-26T00:05:12.527Z,37.56
2016-11-26T00:06:22.161Z,37.46
2016-11-26T00:07:31.180Z,37.56
2016-11-26T00:08:40.170Z,37.56
2016-11-26T00:09:49.310Z,37.56
2016-11-26T00:10:58.306Z,37.56
2016-11-26T00:12:07.920Z,37.56
2016-11-26T00:13:16.975Z,37.56
2016-11-26T00:14:26.284Z,37.56
2016-11-26T00:15:36.661Z,37.46
2016-11-26T00:16:45.371Z,37.66
2016-11-26T00:17:55.069Z,37.56
2016-11-26T00:19:04.691Z,37.46
2016-11-26T00:20:14.072Z,37.56
2016-11-26T00:21:22.861Z,37.56
2016-11-26T00:22:31.897Z,37.56
2016-11-26T00:23:40.909Z,37.56
2016-11-26T00:24:50.599Z,37.56
2016-11-26T00:25:59.945Z,37.56
2016-11-26T00:27:08.896Z,37.56
2016-11-26T00:28:17.615Z,37.56
2016-11-26T00:29:26.937Z,37.46
2016-11-26T00:30:35.701Z,37.66
2016-11-26T00:31:45.051Z,37.56
2016-11-26T00:32:54.691Z,37.56
2016-11-26T00:34:03.511Z,37.56
2016-11-26T00:35:12.809Z,37.56
2016-11-26T00:36:22.101Z,37.56
2016-11-26T00:37:30.818Z,37.56
2016-11-26T00:38:40.141Z,37.66
2016-11-26T00:39:49.171Z,37.56
2016-11-26T00:40:58.434Z,37.56
2016-11-26T00:42:07.161Z,37.56
2016-11-26T00:43:16.840Z,37.56
2016-11-26T00:44:25.866Z,37.66
2016-11-26T00:45:34.858Z,37.56
2016-11-26T00:46:43.872Z,37.56
2016-11-26T00:47:52.879Z,37.46
2016-11-26T00:49:01.579Z,37.46
2016-11-26T00:50:10.305Z,37.46
2016-11-26T00:51:19.298Z,37.56
2016-11-26T00:52:28.592Z,37.56
2016-11-26T00:53:37.602Z,37.56
2016-11-26T00:54:46.905Z,37.56
2016-11-26T00:55:55.952Z,37.66
2016-11-26T00:57:05.067Z,37.46
2016-11-26T00:58:14.399Z,37.66
2016-11-26T00:59:23.088Z,37.56
2016-11-26T01:00:31.781Z,37.76
2016-11-26T01:01:40.469Z,37.66
2016-11-26T01:02:49.173Z,37.56
2016-11-26T01:03:58.497Z,37.56
2016-11-26T01:05:07.504Z,37.56
2016-11-26T01:06:16.512Z,37.66
2016-11-26T01:07:25.510Z,37.56
2016-11-26T01:08:34.202Z,37.56
2016-11-26T01:09:43.246Z,37.56
2016-11-26T01:10:52.263Z,37.56
2016-11-26T01:12:01.309Z,37.56
2016-11-26T01:13:10.356Z,37.66
2016-11-26T01:14:20.286Z,37.56
2016-11-26T01:15:28.965Z,37.66
2016-11-26T01:16:37.642Z,37.56
2016-11-26T01:17:46.944Z,37.56
2016-11-26T01:18:55.705Z,37.66
2016-11-26T01:20:04.403Z,37.66
2016-11-26T01:21:13.701Z,37.56
2016-11-26T01:22:23.040Z,37.56
2016-11-26T01:23:33.261Z,37.46
2016-11-26T01:24:43.379Z,37.56
2016-11-26T01:25:52.986Z,37.56
2016-11-26T01:27:02.003Z,37.56
2016-11-26T01:28:11.327Z,37.46
2016-11-26T01:29:20.360Z,37.56
2016-11-26T01:30:29.049Z,37.66
2016-11-26T01:31:38.067Z,37.46
2016-11-26T01:32:47.086Z,37.46
2016-11-26T01:33:56.434Z,37.46
2016-11-26T01:35:05.469Z,37.56
2016-11-26T01:36:14.177Z,37.46
2016-11-26T01:37:23.196Z,37.56
2016-11-26T01:38:32.492Z,37.56
2016-11-26T01:39:41.807Z,37.56
2016-11-26T01:40:50.821Z,37.54
2016-11-26T01:41:59.841Z,37.46
2016-11-26T01:43:08.565Z,37.46
2016-11-26T01:44:17.873Z,37.37
2016-11-26T01:45:26.891Z,37.46
2016-11-26T01:46:36.203Z,37.46
2016-11-26T01:47:44.905Z,37.37
2016-11-26T01:48:54.219Z,37.46
2016-11-26T01:50:03.220Z,37.46
2016-11-26T01:51:11.959Z,37.56
2016-11-26T01:52:20.652Z,37.46
2016-11-26T01:53:29.462Z,37.46
2016-11-26T01:54:38.165Z,37.46
2016-11-26T01:55:47.163Z,37.46
2016-11-26T01:56:55.914Z,37.46
2016-11-26T01:58:04.953Z,37.46
2016-11-26T01:59:14.434Z,37.27
2016-11-26T02:00:23.132Z,37.46
2016-11-26T02:01:32.122Z,37.26
2016-11-26T02:02:40.828Z,37.37
2016-11-26T02:03:49.846Z,37.27
2016-11-26T02:04:58.855Z,37.37
2016-11-26T02:06:07.548Z,37.27
2016-11-26T02:07:16.541Z,37.37
2016-11-26T02:08:25.558Z,37.26
2016-11-26T02:09:34.602Z,37.18
2016-11-26T02:10:43.635Z,37.27
2016-11-26T02:11:52.665Z,37.16
2016-11-26T02:13:01.986Z,37.27
2016-11-26T02:14:11.046Z,37.18
2016-11-26T02:15:20.404Z,37.27
2016-11-26T02:16:29.698Z,37.27
2016-11-26T02:17:39.022Z,37.27
2016-11-26T02:18:48.627Z,37.27
2016-11-26T02:19:57.958Z,37.37
2016-11-26T02:21:07.566Z,37.27
2016-11-26T02:22:16.872Z,37.18
2016-11-26T02:23:25.867Z,37.18
2016-11-26T02:24:34.585Z,37.37
2016-11-26T02:25:43.303Z,37.18
2016-11-26T02:26:51.993Z,37.27
2016-11-26T02:28:01.897Z,37.18
2016-11-26T02:29:10.915Z,37.18
2016-11-26T02:30:20.525Z,37.18
2016-11-26T02:31:29.216Z,37.18
2016-11-26T02:32:38.238Z,37.27
2016-11-26T02:33:47.228Z,37.18
2016-11-26T02:34:56.535Z,37.18
2016-11-26T02:36:05.536Z,37.18
2016-11-26T02:37:14.252Z,37.27
2016-11-26T02:38:22.956Z,37.27
2016-11-26T02:39:32.314Z,37.16
2016-11-26T02:40:41.450Z,37.18
2016-11-26T02:41:50.773Z,37.18
2016-11-26T02:42:59.768Z,37.16
2016-11-26T02:44:08.756Z,36.99
2016-11-26T02:45:18.059Z,37.18
2016-11-26T02:46:27.079Z,37.18
2016-11-26T02:47:36.387Z,37.18
2016-11-26T02:48:45.412Z,37.18
2016-11-26T02:49:54.159Z,37.26
2016-11-26T02:51:02.848Z,37.06
2016-11-26T02:52:11.579Z,37.16
2016-11-26T02:53:20.907Z,37.08
2016-11-26T02:54:30.833Z,37.16
2016-11-26T02:55:40.183Z,37.26
2016-11-26T02:56:49.343Z,36.97
2016-11-26T02:57:58.973Z,36.97
2016-11-26T02:59:08.598Z,37.26
2016-11-26T03:00:17.646Z,37.16
2016-11-26T03:01:26.949Z,36.87
2016-11-26T03:02:35.640Z,36.77
2016-11-26T03:03:44.344Z,36.87
2016-11-26T03:04:53.647Z,36.97
2016-11-26T03:06:03.324Z,36.87
2016-11-26T03:07:12.372Z,36.77
2016-11-26T03:08:21.393Z,36.77
2016-11-26T03:09:31.071Z,36.77
2016-11-26T03:10:39.821Z,36.77
2016-11-26T03:11:48.820Z,36.87
2016-11-26T03:12:58.111Z,36.77
2016-11-26T03:14:07.526Z,36.97
2016-11-26T03:15:16.528Z,37.06
2016-11-26T03:16:26.457Z,36.97
2016-11-26T03:17:35.148Z,36.97
2016-11-26T03:18:44.779Z,36.97
2016-11-26T03:19:54.414Z,37.06
2016-11-26T03:21:03.413Z,37.06
2016-11-26T03:22:12.473Z,36.87
2016-11-26T03:23:21.458Z,37.06
2016-11-26T03:24:30.772Z,37.06
2016-11-26T03:25:39.775Z,37.06
2016-11-26T03:26:48.803Z,36.97
2016-11-26T03:27:58.410Z,37.06
2016-11-26T03:29:07.420Z,37.06
2016-11-26T03:30:16.719Z,37.06
2016-11-26T03:31:25.709Z,36.97
2016-11-26T03:32:34.705Z,37.06
2016-11-26T03:33:44.033Z,37.06
2016-11-26T03:34:53.949Z,36.97
2016-11-26T03:36:03.294Z,37.06
2016-11-26T03:37:12.442Z,37.26
2016-11-26T03:38:21.136Z,37.06
2016-11-26T03:39:30.151Z,37.06
2016-11-26T03:40:39.777Z,37.06
2016-11-26T03:41:48.803Z,36.77
2016-11-26T03:42:57.891Z,36.97
2016-11-26T03:44:06.622Z,36.97
2016-11-26T03:45:15.338Z,36.87
2016-11-26T03:46:24.028Z,36.77
2016-11-26T03:47:32.715Z,37.16
2016-11-26T03:48:42.073Z,37.06
2016-11-26T03:49:51.062Z,37.16
2016-11-26T03:51:00.092Z,37.06
2016-11-26T03:52:09.122Z,37.06
2016-11-26T03:53:17.821Z,37.16
2016-11-26T03:54:26.660Z,37.06
2016-11-26T03:55:35.986Z,36.87
2016-11-26T03:56:44.979Z,36.68
2016-11-26T03:57:54.308Z,36.97
2016-11-26T03:59:03.333Z,36.87
2016-11-26T04:00:12.484Z,36.97
2016-11-26T04:01:21.473Z,36.97
2016-11-26T04:02:30.788Z,36.97
2016-11-26T04:03:39.790Z,36.97
2016-11-26T04:04:48.489Z,37.06
2016-11-26T04:05:57.801Z,37.06
2016-11-26T04:07:06.833Z,37.06
2016-11-26T04:08:15.525Z,36.97
2016-11-26T04:09:24.866Z,36.97
2016-11-26T04:10:34.175Z,37.06
2016-11-26T04:11:43.031Z,36.87
2016-11-26T04:12:51.742Z,36.97
2016-11-26T04:14:00.531Z,36.87
2016-11-26T04:15:09.840Z,36.87
2016-11-26T04:16:18.548Z,36.97
2016-11-26T04:17:28.013Z,36.97
2016-11-26T04:18:37.324Z,36.97
2016-11-26T04:19:46.041Z,36.87
2016-11-26T04:20:54.811Z,36.87
2016-11-26T04:22:03.504Z,36.97
2016-11-26T04:23:12.801Z,36.97
2016-11-26T04:24:22.136Z,36.97
2016-11-26T04:25:31.818Z,36.87
2016-11-26T04:26:40.545Z,36.97
2016-11-26T04:27:49.853Z,36.87
2016-11-26T04:28:58.842Z,36.97
2016-11-26T04:30:08.135Z,36.97
2016-11-26T04:31:17.143Z,36.87
2016-11-26T04:32:26.150Z,36.87
2016-11-26T04:33:35.469Z,36.87
2016-11-26T04:34:45.065Z,36.68
2016-11-26T04:35:53.790Z,36.58
2016-11-26T04:37:02.510Z,36.68
2016-11-26T04:38:11.804Z,36.68
2016-11-26T04:39:21.097Z,36.49
2016-11-26T04:40:31.037Z,36.49
2016-11-26T04:41:40.366Z,36.77
2016-11-26T04:42:49.102Z,36.58
2016-11-26T04:43:58.119Z,36.49
2016-11-26T04:45:07.422Z,36.58
2016-11-26T04:46:16.737Z,36.77
2016-11-26T04:47:26.036Z,36.58
2016-11-26T04:48:34.796Z,36.68
2016-11-26T04:49:43.784Z,36.77
2016-11-26T04:50:52.800Z,36.58
2016-11-26T04:52:01.828Z,36.58
2016-11-26T04:53:11.129Z,36.58
2016-11-26T04:54:20.143Z,36.77
2016-11-26T04:55:29.129Z,36.87
2016-11-26T04:56:38.452Z,36.87
2016-11-26T04:57:47.450Z,36.49
2016-11-26T04:58:56.809Z,36.87
2016-11-26T05:00:05.812Z,36.58
2016-11-26T05:01:14.826Z,36.77
2016-11-26T05:02:23.553Z,36.58
2016-11-26T05:03:32.263Z,36.87
2016-11-26T05:04:41.582Z,36.49
2016-11-26T05:05:50.924Z,36.87
2016-11-26T05:06:59.933Z,36.58
2016-11-26T05:08:09.253Z,36.68
2016-11-26T05:09:18.286Z,36.68
2016-11-26T05:10:27.304Z,36.58
2016-11-26T05:11:35.998Z,36.77
2016-11-26T05:12:44.691Z,36.68
2016-11-26T05:13:54.303Z,36.68
2016-11-26T05:15:03.301Z,36.77
2016-11-26T05:16:12.622Z,36.77
2016-11-26T05:17:21.940Z,36.77
2016-11-26T05:18:30.655Z,36.77
2016-11-26T05:19:40.255Z,36.77
2016-11-26T05:20:49.312Z,36.68
2016-11-26T05:21:58.311Z,36.68
2016-11-26T05:23:07.712Z,36.49
2016-11-26T05:24:16.749Z,36.58
2016-11-26T05:25:26.049Z,36.58
2016-11-26T05:26:34.773Z,36.58
2016-11-26T05:27:44.178Z,36.58
2016-11-26T05:28:53.820Z,36.68
2016-11-26T05:30:02.811Z,36.49
2016-11-26T05:31:12.105Z,36.58
2016-11-26T05:32:21.399Z,36.68
2016-11-26T05:33:30.122Z,36.58
2016-11-26T05:34:39.767Z,36.58
2016-11-26T05:35:48.781Z,36.68
2016-11-26T05:36:58.119Z,36.68
2016-11-26T05:38:07.741Z,36.58
2016-11-26T05:39:17.059Z,36.68
2016-11-26T05:40:26.414Z,36.68
2016-11-26T05:41:35.454Z,36.68
2016-11-26T05:42:44.498Z,36.68
2016-11-26T05:43:53.543Z,36.49
2016-11-26T05:45:02.543Z,36.49
2016-11-26T05:46:11.240Z,36.58
2016-11-26T05:47:20.566Z,36.58
2016-11-26T05:48:29.904Z,36.58
2016-11-26T05:49:39.241Z,36.58
2016-11-26T05:50:48.308Z,36.49
2016-11-26T05:51:57.094Z,36.58
2016-11-26T05:53:05.867Z,36.49
2016-11-26T05:54:14.872Z,36.49
2016-11-26T05:55:24.044Z,36.19
2016-11-26T05:56:33.348Z,36.49
2016-11-26T05:57:42.040Z,36.49
2016-11-26T05:58:51.061Z,36.49
2016-11-26T06:00:00.085Z,36.39
2016-11-26T06:01:08.814Z,36.39
2016-11-26T06:02:18.158Z,36.39
2016-11-26T06:03:26.861Z,36.39
2016-11-26T06:04:36.196Z,36.29
2016-11-26T06:05:45.535Z,36.29
2016-11-26T06:06:55.196Z,36.49
2016-11-26T06:08:04.192Z,36.49
2016-11-26T06:09:13.186Z,36.39
2016-11-26T06:10:22.220Z,36.39
2016-11-26T06:11:31.536Z,36.19
2016-11-26T06:12:40.234Z,36.39
2016-11-26T06:13:49.303Z,36.29
2016-11-26T06:14:58.911Z,36.29
2016-11-26T06:16:07.623Z,36.29
2016-11-26T06:17:16.359Z,36.19
2016-11-26T06:18:25.085Z,36.49
2016-11-26T06:19:34.413Z,36.29
2016-11-26T06:20:43.542Z,36.19
2016-11-26T06:21:52.602Z,36.19
2016-11-26T06:23:02.216Z,36.29
2016-11-26T06:24:11.260Z,36.19
2016-11-26T06:25:20.297Z,36.39
2016-11-26T06:26:29.944Z,36.39
2016-11-26T06:27:38.949Z,36.1
2016-11-26T06:28:48.253Z,36.1
2016-11-26T06:29:57.248Z,36.1
2016-11-26T06:31:06.881Z,36
2016-11-26T06:32:15.921Z,36.19
2016-11-26T06:33:25.273Z,35.91
2016-11-26T06:34:34.028Z,35.91
2016-11-26T06:35:42.803Z,35.91
2016-11-26T06:36:51.818Z,36.39
2016-11-26T06:38:00.893Z,36.29
2016-11-26T06:39:09.890Z,36.29
2016-11-26T06:40:18.617Z,36.39
2016-11-26T06:41:27.333Z,36.29
2016-11-26T06:42:36.949Z,36.29
2016-11-26T06:43:45.649Z,36.29
2016-11-26T06:44:54.356Z,36.29
2016-11-26T06:46:03.385Z,36.19
2016-11-26T06:47:12.838Z,36.29
2016-11-26T06:48:22.173Z,36.39
2016-11-26T06:49:31.162Z,36.29
2016-11-26T06:50:39.869Z,36.29
2016-11-26T06:51:49.178Z,36.19
2016-11-26T06:52:58.168Z,36.19
2016-11-26T06:54:07.460Z,36.39
2016-11-26T06:55:16.475Z,36.19
2016-11-26T06:56:25.186Z,36.19
2016-11-26T06:57:34.216Z,36
2016-11-26T06:58:42.930Z,36.19
2016-11-26T06:59:52.536Z,36.1
2016-11-26T07:01:01.260Z,36.1
2016-11-26T07:02:10.909Z,36.1
2016-11-26T07:03:20.209Z,36
2016-11-26T07:04:29.504Z,36.1
2016-11-26T07:05:39.134Z,36.19
2016-11-26T07:06:47.852Z,36.1
2016-11-26T07:07:56.891Z,36.19
2016-11-26T07:09:05.900Z,36
2016-11-26T07:10:14.817Z,36.1
2016-11-26T07:11:23.547Z,36
2016-11-26T07:12:32.858Z,36.19
2016-11-26T07:13:41.549Z,36.1
2016-11-26T07:14:50.262Z,36.1
2016-11-26T07:15:58.968Z,36.19
2016-11-26T07:17:07.648Z,36.19
2016-11-26T07:18:17.000Z,36.19
2016-11-26T07:19:26.063Z,36.19
2016-11-26T07:20:35.980Z,36.1
2016-11-26T07:21:45.648Z,36.1
2016-11-26T07:22:54.338Z,36.1
2016-11-26T07:24:03.367Z,36.1
2016-11-26T07:25:12.408Z,35.91
2016-11-26T07:26:21.497Z,36.1
2016-11-26T07:27:30.553Z,36.1
2016-11-26T07:28:39.600Z,36
2016-11-26T07:29:48.901Z,35.71
2016-11-26T07:30:57.966Z,35.91
2016-11-26T07:32:06.986Z,35.91
2016-11-26T07:33:15.999Z,35.91
2016-11-26T07:34:25.004Z,36
2016-11-26T07:35:33.750Z,35.71
2016-11-26T07:36:42.473Z,35.71
2016-11-26T07:37:52.124Z,35.71
2016-11-26T07:39:01.472Z,35.81
2016-11-26T07:40:10.495Z,35.42
2016-11-26T07:41:19.229Z,35.24
2016-11-26T07:42:28.537Z,35.33
2016-11-26T07:43:37.530Z,35.33
2016-11-26T07:44:46.277Z,35.04
2016-11-26T07:45:55.604Z,35.16
2016-11-26T07:47:04.607Z,35.06
2016-11-26T07:48:13.689Z,35.06
2016-11-26T07:49:22.792Z,35.06
2016-11-26T07:50:32.162Z,35.06
2016-11-26T07:51:41.696Z,34.77
2016-11-26T07:52:50.692Z,34.48
2016-11-26T07:53:59.697Z,34.4
2016-11-26T07:55:08.686Z,34.4
2016-11-26T07:56:17.916Z,34.5
2016-11-26T07:57:27.045Z,34.5
2016-11-26T07:58:36.670Z,34.4
2016-11-26T07:59:45.448Z,34.4
2016-11-26T08:00:54.839Z,34.5
2016-11-26T08:02:04.211Z,34.21
2016-11-26T08:03:13.433Z,34.22
2016-11-26T08:04:22.843Z,34.22
2016-11-26T08:05:32.023Z,34.22
2016-11-26T08:06:41.102Z,34.22
2016-11-26T08:07:50.691Z,34.32
2016-11-26T08:08:59.800Z,34.52
2016-11-26T08:10:08.810Z,34.03
2016-11-26T08:11:18.112Z,34.03
2016-11-26T08:12:27.725Z,34.03
2016-11-26T08:13:37.050Z,34.03
2016-11-26T08:14:45.738Z,33.74
2016-11-26T08:15:54.458Z,33.66
2016-11-26T08:17:03.522Z,33.76
2016-11-26T08:18:12.212Z,33.17
2016-11-26T08:19:21.238Z,33.47
2016-11-26T08:20:29.933Z,33.57
2016-11-26T08:21:38.946Z,33.57
2016-11-26T08:22:48.017Z,33.37
2016-11-26T08:23:57.308Z,33.28
2016-11-26T08:25:06.307Z,33.57
2016-11-26T08:26:15.598Z,33.47
2016-11-26T08:27:24.603Z,33.37
2016-11-26T08:28:33.894Z,33.57
2016-11-26T08:29:42.611Z,33.47
2016-11-26T08:30:51.452Z,33.47
2016-11-26T08:32:00.467Z,33.28
2016-11-26T08:33:09.464Z,33.47
2016-11-26T08:34:18.454Z,33.37
2016-11-26T08:35:27.147Z,33.37
2016-11-26T08:36:35.834Z,33.37
2016-11-26T08:37:44.534Z,33.47
2016-11-26T08:38:53.213Z,33.47
2016-11-26T08:40:02.203Z,33.48
2016-11-26T08:41:11.524Z,33.47
2016-11-26T08:42:21.123Z,33.48
2016-11-26T08:43:30.419Z,33.48
2016-11-26T08:44:40.338Z,33.39
2016-11-26T08:45:49.026Z,33.58
2016-11-26T08:46:58.045Z,33
2016-11-26T08:48:07.230Z,33.39
2016-11-26T08:49:15.918Z,33.48
2016-11-26T08:50:25.225Z,33
2016-11-26T08:51:34.237Z,33.29
2016-11-26T08:52:42.923Z,33.2
2016-11-26T08:53:51.927Z,33.2
2016-11-26T08:55:01.221Z,33.2
2016-11-26T08:56:09.926Z,33.1
2016-11-26T08:57:18.608Z,33.1
2016-11-26T08:58:27.604Z,33.2
2016-11-26T08:59:36.298Z,33.1
2016-11-26T09:00:44.989Z,33.2
2016-11-26T09:01:54.288Z,33.29
2016-11-26T09:03:03.591Z,33.2
2016-11-26T09:04:12.590Z,33
2016-11-26T09:05:21.275Z,33.31
2016-11-26T09:06:30.015Z,33.12
2016-11-26T09:07:39.630Z,33.2
2016-11-26T09:08:48.632Z,33.02
2016-11-26T09:09:57.621Z,33.12
2016-11-26T09:11:06.491Z,33.12
2016-11-26T09:12:15.481Z,33.12
2016-11-26T09:13:24.477Z,33.02
2016-11-26T09:14:33.486Z,33.02
2016-11-26T09:15:42.485Z,33.02
2016-11-26T09:16:52.163Z,33.12
2016-11-26T09:18:01.167Z,33.22
2016-11-26T09:19:10.804Z,33.22
2016-11-26T09:20:20.118Z,33.02
2016-11-26T09:21:29.108Z,33.12
2016-11-26T09:22:38.428Z,33.22
2016-11-26T09:23:48.351Z,33.12
2016-11-26T09:24:57.986Z,33.22
2016-11-26T09:26:06.979Z,33.02
2016-11-26T09:27:16.597Z,33.02
2016-11-26T09:28:25.905Z,33.4
2016-11-26T09:29:34.918Z,33.31
2016-11-26T09:30:43.666Z,33.31
2016-11-26T09:31:52.745Z,33.31
2016-11-26T09:33:01.440Z,33.02
2016-11-26T09:34:10.767Z,33.31
2016-11-26T09:35:19.815Z,33.12
2016-11-26T09:36:28.827Z,33.02
2016-11-26T09:37:37.541Z,33.12
2016-11-26T09:38:46.650Z,33.31
2016-11-26T09:39:55.714Z,33.31
2016-11-26T09:41:05.049Z,33.4
2016-11-26T09:42:13.771Z,33.4
2016-11-26T09:43:23.194Z,33.4
2016-11-26T09:44:32.265Z,33.31
2016-11-26T09:45:41.614Z,33.5
2016-11-26T09:46:50.335Z,33.5
2016-11-26T09:48:00.245Z,33.5
2016-11-26T09:49:09.552Z,33.22
2016-11-26T09:50:18.244Z,33.14
2016-11-26T09:51:27.998Z,33.23
2016-11-26T09:52:37.304Z,33.04
2016-11-26T09:53:46.304Z,33.04
2016-11-26T09:54:55.008Z,32.94
2016-11-26T09:56:04.314Z,33.04
2016-11-26T09:57:13.471Z,33.14
2016-11-26T09:58:22.821Z,33.23
2016-11-26T09:59:31.829Z,33.04
2016-11-26T10:00:41.758Z,32.56
2016-11-26T10:01:50.742Z,32.56
2016-11-26T10:03:00.160Z,32.65
2016-11-26T10:04:09.169Z,32.65
2016-11-26T10:05:18.473Z,32.67
2016-11-26T10:06:27.484Z,32.67
2016-11-26T10:07:36.789Z,32.57
2016-11-26T10:08:45.592Z,32.57
2016-11-26T10:09:54.601Z,33.14
2016-11-26T10:11:03.309Z,33.42
2016-11-26T10:12:12.335Z,33.14
2016-11-26T10:13:21.943Z,33.62
2016-11-26T10:14:31.559Z,33.42
2016-11-26T10:15:40.558Z,33.72
2016-11-26T10:16:49.267Z,33.81
2016-11-26T10:17:57.961Z,33.6
2016-11-26T10:19:06.990Z,33.52
2016-11-26T10:20:16.296Z,33.91
2016-11-26T10:21:24.981Z,33.6
2016-11-26T10:22:33.667Z,33.42
2016-11-26T10:23:42.968Z,33.72
2016-11-26T10:24:51.960Z,33.8
2016-11-26T10:26:00.750Z,33.72
2016-11-26T10:27:09.747Z,33.7
2016-11-26T10:28:19.063Z,33.7
2016-11-26T10:29:28.053Z,33.8
2016-11-26T10:30:37.047Z,33.89
2016-11-26T10:31:46.039Z,34.08
2016-11-26T10:32:54.722Z,34.18
2016-11-26T10:34:04.063Z,34.18
2016-11-26T10:35:14.005Z,33.98
2016-11-26T10:36:23.003Z,34.18
2016-11-26T10:37:32.470Z,34.08
2016-11-26T10:38:41.459Z,34.08
2016-11-26T10:39:50.756Z,34.08
2016-11-26T10:40:59.771Z,33.98
2016-11-26T10:42:08.770Z,34.38
2016-11-26T10:43:17.763Z,34.38
2016-11-26T10:44:26.762Z,34.47
2016-11-26T10:45:35.759Z,34.38
2016-11-26T10:46:45.691Z,34.28
2016-11-26T10:47:54.705Z,34.28
2016-11-26T10:49:04.611Z,34.18
2016-11-26T10:50:13.602Z,34.18
2016-11-26T10:51:22.592Z,34.18
2016-11-26T10:52:31.280Z,34.28
2016-11-26T10:53:40.896Z,34.18
2016-11-26T10:54:50.196Z,34.18
2016-11-26T10:55:58.877Z,34.47
2016-11-26T10:57:07.866Z,34.45
2016-11-26T10:58:16.856Z,34.45
2016-11-26T10:59:26.455Z,34.47
2016-11-26T11:00:36.055Z,34.55
2016-11-26T11:01:44.739Z,34.45
2016-11-26T11:02:54.381Z,34.64
2016-11-26T11:04:03.684Z,34.64
2016-11-26T11:05:12.437Z,34.64
2016-11-26T11:06:21.602Z,34.64
2016-11-26T11:07:30.306Z,34.36
2016-11-26T11:08:39.010Z,34.26
2016-11-26T11:09:48.001Z,34.74
2016-11-26T11:10:56.695Z,34.26
2016-11-26T11:12:06.357Z,34.36
2016-11-26T11:13:15.981Z,34.84
2016-11-26T11:14:24.979Z,34.36
2016-11-26T11:15:33.685Z,35.13
2016-11-26T11:16:43.325Z,34.55
2016-11-26T11:17:52.963Z,34.45
2016-11-26T11:19:02.615Z,34.55
2016-11-26T11:20:11.928Z,34.55
2016-11-26T11:21:20.921Z,34.55
2016-11-26T11:22:29.919Z,34.36
2016-11-26T11:23:39.533Z,34.45
2016-11-26T11:24:48.541Z,34.55
2016-11-26T11:25:57.248Z,34.45
2016-11-26T11:27:06.558Z,34.64
2016-11-26T11:28:15.893Z,34.64
2016-11-26T11:29:24.640Z,34.74
2016-11-26T11:30:33.363Z,34.64
2016-11-26T11:31:42.438Z,34.55
2016-11-26T11:32:51.745Z,34.64
2016-11-26T11:34:00.763Z,34.64
2016-11-26T11:35:10.396Z,34.55
2016-11-26T11:36:19.081Z,34.74
2016-11-26T11:37:28.108Z,34.74
2016-11-26T11:38:37.449Z,34.74
2016-11-26T11:39:46.440Z,34.74
2016-11-26T11:40:55.782Z,34.84
2016-11-26T11:42:05.096Z,34.74
2016-11-26T11:43:14.415Z,35.32
2016-11-26T11:44:23.725Z,35.32
2016-11-26T11:45:32.720Z,35.32
2016-11-26T11:46:41.510Z,35.21
2016-11-26T11:47:50.514Z,35.22
2016-11-26T11:48:59.830Z,35.22
2016-11-26T11:50:09.145Z,35.13
2016-11-26T11:51:18.143Z,35.13
2016-11-26T11:52:27.443Z,35.13
2016-11-26T11:53:36.783Z,35.22
2016-11-26T11:54:46.097Z,35.13
2016-11-26T11:55:55.416Z,35.22
2016-11-26T11:57:04.454Z,35.22
2016-11-26T11:58:13.945Z,35.22
2016-11-26T11:59:23.246Z,35.13
2016-11-26T12:00:31.944Z,35.11
2016-11-26T12:01:40.956Z,35.11
2016-11-26T12:02:49.693Z,35.11
2016-11-26T12:03:58.405Z,35.11
2016-11-26T12:05:07.118Z,35.11
2016-11-26T12:06:15.804Z,35.11
2016-11-26T12:07:25.132Z,35.11
2016-11-26T12:08:34.137Z,35.02
2016-11-26T12:09:43.168Z,35.02
2016-11-26T12:10:52.481Z,35.02
2016-11-26T12:12:01.542Z,35.11
2016-11-26T12:13:10.245Z,35.11
2016-11-26T12:14:19.248Z,34.92
2016-11-26T12:15:29.166Z,35.02
2016-11-26T12:16:39.096Z,35.21
2016-11-26T12:17:47.799Z,34.92
2016-11-26T12:18:57.123Z,35.21
2016-11-26T12:20:05.834Z,35.21
2016-11-26T12:21:14.985Z,34.92
2016-11-26T12:22:24.309Z,35.21
2016-11-26T12:23:33.363Z,34.92
2016-11-26T12:24:42.681Z,35.02
2016-11-26T12:25:51.401Z,35.02
2016-11-26T12:27:00.394Z,35.02
2016-11-26T12:28:09.128Z,35.11
2016-11-26T12:29:17.842Z,35.11
2016-11-26T12:30:27.166Z,35.11
2016-11-26T12:31:36.474Z,35.21
2016-11-26T12:32:46.097Z,35.11
2016-11-26T12:33:54.783Z,35.21
2016-11-26T12:35:04.091Z,35.11
2016-11-26T12:36:13.436Z,35.02
2016-11-26T12:37:22.453Z,35.21
2016-11-26T12:38:32.153Z,35.21
2016-11-26T12:39:41.154Z,35.21
2016-11-26T12:40:50.475Z,35.21
2016-11-26T12:41:59.209Z,35.4
2016-11-26T12:43:08.216Z,35.21
2016-11-26T12:44:17.232Z,35.21
2016-11-26T12:45:26.240Z,35.3
2016-11-26T12:46:34.935Z,35.3
2016-11-26T12:47:43.642Z,35.21
2016-11-26T12:48:52.640Z,35.21
2016-11-26T12:50:01.817Z,35.11
2016-11-26T12:51:11.469Z,35.11
2016-11-26T12:52:20.783Z,35.21
2016-11-26T12:53:29.517Z,35.4
2016-11-26T12:54:39.142Z,35.4
2016-11-26T12:55:47.996Z,35.3
2016-11-26T12:56:56.692Z,35.5
2016-11-26T12:58:06.024Z,35.3
2016-11-26T12:59:15.350Z,35.4
2016-11-26T13:00:24.092Z,35.4
2016-11-26T13:01:33.747Z,35.5
2016-11-26T13:02:42.765Z,35.69
2016-11-26T13:03:51.767Z,35.4
2016-11-26T13:05:00.459Z,35.5
2016-11-26T13:06:09.466Z,35.59
2016-11-26T13:07:18.919Z,35.4
2016-11-26T13:08:27.628Z,35.3
2016-11-26T13:09:36.625Z,35.5
2016-11-26T13:10:45.640Z,35.5
2016-11-26T13:11:54.965Z,35.5
2016-11-26T13:13:04.350Z,35.5
2016-11-26T13:14:13.363Z,35.5
2016-11-26T13:15:23.013Z,35.59
2016-11-26T13:16:31.715Z,35.5
2016-11-26T13:17:40.418Z,35.59
2016-11-26T13:18:50.202Z,35.5
2016-11-26T13:19:59.209Z,35.69
2016-11-26T13:21:07.944Z,35.5
2016-11-26T13:22:16.650Z,35.78
2016-11-26T13:23:25.657Z,35.59
2016-11-26T13:24:35.339Z,35.88
2016-11-26T13:25:44.020Z,35.98
2016-11-26T13:26:53.022Z,35.78
2016-11-26T13:28:02.022Z,35.78
2016-11-26T13:29:11.626Z,35.69
2016-11-26T13:30:20.912Z,35.88
2016-11-26T13:31:30.215Z,35.78
2016-11-26T13:32:38.901Z,35.69
2016-11-26T13:33:48.520Z,35.78
2016-11-26T13:34:57.819Z,35.88
2016-11-26T13:36:06.956Z,35.77
2016-11-26T13:37:15.993Z,35.88
2016-11-26T13:38:25.293Z,35.96
2016-11-26T13:39:34.301Z,36.15
2016-11-26T13:40:42.976Z,35.67
2016-11-26T13:41:52.229Z,35.98
2016-11-26T13:43:01.536Z,35.77
2016-11-26T13:44:10.856Z,35.96
2016-11-26T13:45:19.577Z,35.77
2016-11-26T13:46:28.882Z,35.67
2016-11-26T13:47:38.487Z,35.86
2016-11-26T13:48:47.470Z,35.77
2016-11-26T13:49:56.450Z,35.77
2016-11-26T13:51:05.850Z,35.96
2016-11-26T13:52:14.846Z,35.86
2016-11-26T13:53:23.854Z,35.96
2016-11-26T13:54:32.902Z,35.96
2016-11-26T13:55:41.578Z,35.77
2016-11-26T13:56:50.261Z,35.86
2016-11-26T13:57:59.266Z,35.86
2016-11-26T13:59:08.863Z,35.96
2016-11-26T14:00:18.463Z,35.96
2016-11-26T14:01:27.757Z,36.07
2016-11-26T14:02:37.043Z,36.06
2016-11-26T14:03:46.028Z,35.77
2016-11-26T14:04:55.169Z,35.77
2016-11-26T14:06:04.156Z,35.86
2016-11-26T14:07:13.458Z,35.77
2016-11-26T14:08:22.745Z,35.77
2016-11-26T14:09:31.743Z,35.86
2016-11-26T14:10:40.575Z,35.86
2016-11-26T14:11:49.555Z,35.86
2016-11-26T14:12:58.860Z,35.96
2016-11-26T14:14:07.556Z,36.06
2016-11-26T14:15:17.154Z,36.15
2016-11-26T14:16:27.256Z,36.25
2016-11-26T14:17:36.261Z,36.25
2016-11-26T14:18:44.945Z,36.17
2016-11-26T14:19:53.986Z,36.25
2016-11-26T14:21:03.295Z,36.25
2016-11-26T14:22:12.293Z,36.25
2016-11-26T14:23:20.979Z,36.15
2016-11-26T14:24:29.969Z,36.06
2016-11-26T14:25:38.969Z,36.15
2016-11-26T14:26:47.964Z,36.35
2016-11-26T14:27:57.559Z,36.15
2016-11-26T14:29:06.855Z,36.44
2016-11-26T14:30:16.151Z,36.44
2016-11-26T14:31:25.145Z,36.15
2016-11-26T14:32:33.855Z,36.44
2016-11-26T14:33:42.864Z,36.44
2016-11-26T14:34:51.861Z,36.35
2016-11-26T14:36:00.855Z,36.25
2016-11-26T14:37:10.152Z,36.06
2016-11-26T14:38:18.852Z,36.25
2016-11-26T14:39:27.860Z,36.15
2016-11-26T14:40:36.859Z,36.25
2016-11-26T14:41:45.853Z,36.44
2016-11-26T14:42:54.574Z,36.44
2016-11-26T14:44:03.280Z,36.25
2016-11-26T14:45:12.601Z,36.25
2016-11-26T14:46:21.612Z,36.35
2016-11-26T14:47:31.209Z,36.35
2016-11-26T14:48:40.195Z,36.44
2016-11-26T14:49:49.189Z,36.35
2016-11-26T14:50:58.943Z,36.35
2016-11-26T14:52:08.274Z,36.35
2016-11-26T14:53:17.568Z,36.44